createdAt,value
2018-12-22T00:01:29.644Z,7.90
2018-12-22T00:03:58.145Z,7.90
2018-12-22T00:06:27.591Z,7.80
2018-12-22T00:08:56.088Z,7.90
2018-12-22T00:11:24.580Z,7.80
2018-12-22T00:13:53.763Z,7.80
2018-12-22T00:16:22.389Z,7.80
2018-12-22T00:18:51.122Z,7.80
2018-12-22T00:21:19.691Z,7.80
2018-12-22T00:23:48.213Z,7.80
2018-12-22T00:26:16.946Z,7.70
2018-12-22T00:28:46.177Z,7.70
2018-12-22T00:31:14.675Z,7.70
2018-12-22T00:33:43.150Z,7.70
2018-12-22T00:36:11.648Z,7.70
2018-12-22T00:38:40.196Z,7.70
2018-12-22T00:41:08.823Z,7.70
2018-12-22T00:43:37.315Z,7.60
2018-12-22T00:46:05.804Z,7.60
2018-12-22T00:48:34.433Z,7.60
2018-12-22T00:51:02.994Z,7.60
2018-12-22T00:53:31.712Z,7.70
2018-12-22T00:56:00.190Z,7.70
2018-12-22T00:58:30.801Z,7.70
2018-12-22T01:00:59.748Z,7.70
2018-12-22T01:03:28.270Z,7.80
2018-12-22T01:05:56.744Z,7.80
2018-12-22T01:08:25.377Z,7.80
2018-12-22T01:10:53.891Z,7.90
2018-12-22T01:13:22.658Z,7.90
2018-12-22T01:15:51.160Z,7.90
2018-12-22T01:18:19.979Z,7.90
2018-12-22T01:20:48.471Z,7.90
2018-12-22T01:23:17.153Z,7.90
2018-12-22T01:25:45.638Z,7.90
2018-12-22T01:28:14.220Z,7.90
2018-12-22T01:30:42.706Z,7.80
2018-12-22T01:33:11.246Z,7.90
2018-12-22T01:35:39.718Z,7.90
2018-12-22T01:38:08.221Z,7.90
2018-12-22T01:40:36.848Z,7.90
2018-12-22T01:43:05.383Z,7.90
2018-12-22T01:45:34.561Z,7.90
2018-12-22T01:48:03.038Z,7.90
2018-12-22T01:50:31.559Z,7.90
2018-12-22T01:53:00.049Z,7.90
2018-12-22T01:55:28.766Z,8.00
2018-12-22T01:57:57.247Z,8.00
2018-12-22T02:00:26.034Z,8.00
2018-12-22T02:02:54.478Z,8.00
2018-12-22T02:05:23.000Z,8.10
2018-12-22T02:07:51.462Z,8.30
2018-12-22T02:10:19.905Z,8.30
2018-12-22T02:12:48.607Z,8.30
2018-12-22T02:15:17.811Z,8.20
2018-12-22T02:17:46.327Z,8.20
2018-12-22T02:20:14.983Z,8.20
2018-12-22T02:22:43.549Z,8.20
2018-12-22T02:25:12.074Z,8.20
2018-12-22T02:27:40.585Z,8.10
2018-12-22T02:30:09.793Z,8.20
2018-12-22T02:32:38.383Z,8.30
2018-12-22T02:35:06.974Z,8.40
2018-12-22T02:37:36.085Z,8.40
2018-12-22T02:40:05.874Z,8.30
2018-12-22T02:42:34.347Z,8.30
2018-12-22T02:45:02.886Z,8.30
2018-12-22T02:47:31.447Z,8.30
2018-12-22T02:50:01.061Z,8.30
2018-12-22T02:52:29.806Z,8.30
2018-12-22T02:54:58.505Z,8.30
2018-12-22T02:57:27.011Z,8.30
2018-12-22T02:59:55.728Z,8.30
2018-12-22T03:02:24.206Z,8.40
2018-12-22T03:04:52.793Z,8.40
2018-12-22T03:07:21.403Z,8.40
2018-12-22T03:09:50.049Z,8.60
2018-12-22T03:12:18.744Z,8.50
2018-12-22T03:14:48.346Z,8.70
2018-12-22T03:17:17.694Z,8.90
2018-12-22T03:19:46.279Z,9.20
2018-12-22T03:22:14.863Z,9.30
2018-12-22T03:24:43.359Z,9.50
2018-12-22T03:27:12.618Z,9.50
2018-12-22T03:29:41.393Z,9.60
2018-12-22T03:32:16.786Z,9.50
2018-12-22T03:34:45.655Z,9.40
2018-12-22T03:37:14.301Z,9.40
2018-12-22T03:39:43.747Z,9.40
2018-12-22T03:42:13.202Z,9.30
2018-12-22T03:44:41.827Z,9.30
2018-12-22T03:47:10.277Z,9.30
2018-12-22T03:49:38.960Z,9.30
2018-12-22T03:52:07.470Z,9.40
2018-12-22T03:54:36.396Z,9.50
2018-12-22T03:57:04.891Z,9.60
2018-12-22T03:59:33.529Z,9.60
2018-12-22T04:02:02.039Z,9.40
2018-12-22T04:04:30.517Z,9.40
2018-12-22T04:06:59.110Z,9.40
2018-12-22T04:09:28.451Z,9.40
2018-12-22T04:11:57.316Z,9.40
2018-12-22T04:14:25.929Z,9.50
2018-12-22T04:16:54.434Z,9.40
2018-12-22T04:19:22.925Z,9.60
2018-12-22T04:21:51.612Z,9.60
2018-12-22T04:24:20.401Z,9.70
2018-12-22T04:26:48.934Z,9.70
2018-12-22T04:29:17.479Z,9.60
2018-12-22T04:31:46.682Z,9.50
2018-12-22T04:34:15.153Z,9.50
2018-12-22T04:36:43.647Z,9.60
2018-12-22T04:39:12.177Z,9.60
2018-12-22T04:41:41.093Z,9.50
2018-12-22T04:44:10.166Z,9.50
2018-12-22T04:46:39.101Z,9.40
2018-12-22T04:49:07.878Z,9.50
2018-12-22T04:51:36.422Z,9.50
2018-12-22T04:54:05.033Z,9.50
2018-12-22T04:56:33.610Z,9.40
2018-12-22T04:59:02.091Z,9.40
2018-12-22T05:01:30.570Z,9.40
2018-12-22T05:03:59.306Z,9.30
2018-12-22T05:06:27.862Z,9.30
2018-12-22T05:08:56.406Z,9.30
2018-12-22T05:11:24.914Z,9.40
2018-12-22T05:13:54.616Z,9.40
2018-12-22T05:16:23.207Z,9.40
2018-12-22T05:18:51.921Z,9.50
2018-12-22T05:21:20.454Z,9.40
2018-12-22T05:23:49.130Z,9.50
2018-12-22T05:26:17.713Z,9.60
2018-12-22T05:28:46.532Z,9.50
2018-12-22T05:31:15.105Z,9.50
2018-12-22T05:33:44.412Z,9.50
2018-12-22T05:36:12.861Z,9.50
2018-12-22T05:38:41.595Z,9.50
2018-12-22T05:41:10.292Z,9.40
2018-12-22T05:43:38.959Z,9.40
2018-12-22T05:46:07.522Z,9.30
2018-12-22T05:48:36.303Z,9.40
2018-12-22T05:51:05.157Z,9.40
2018-12-22T05:53:33.830Z,9.40
2018-12-22T05:56:02.481Z,9.50
2018-12-22T05:58:31.145Z,9.40
2018-12-22T06:01:00.961Z,9.40
2018-12-22T06:03:29.686Z,9.40
2018-12-22T06:05:58.321Z,9.50
2018-12-22T06:08:27.025Z,9.40
2018-12-22T06:10:55.918Z,9.30
2018-12-22T06:13:24.568Z,9.20
2018-12-22T06:15:53.302Z,9.20
2018-12-22T06:18:26.143Z,9.50
2018-12-22T06:20:54.700Z,9.30
2018-12-22T06:23:23.254Z,9.30
2018-12-22T06:25:52.068Z,9.20
2018-12-22T06:28:21.434Z,9.20
2018-12-22T06:30:50.182Z,9.20
2018-12-22T06:33:18.932Z,9.20
2018-12-22T06:35:47.761Z,9.00
2018-12-22T06:38:16.558Z,8.80
2018-12-22T06:40:45.465Z,8.70
2018-12-22T06:43:14.306Z,8.70
2018-12-22T06:45:43.121Z,8.80
2018-12-22T06:48:11.704Z,8.80
2018-12-22T06:50:40.318Z,8.80
2018-12-22T06:53:08.918Z,8.80
2018-12-22T06:55:38.079Z,8.70
2018-12-22T06:58:06.728Z,8.60
2018-12-22T07:00:35.237Z,8.60
2018-12-22T07:03:03.820Z,8.60
2018-12-22T07:05:32.968Z,8.60
2018-12-22T07:08:01.543Z,8.50
2018-12-22T07:10:30.119Z,8.50
2018-12-22T07:12:58.665Z,8.50
2018-12-22T07:15:27.262Z,8.40
2018-12-22T07:17:55.835Z,8.40
2018-12-22T07:20:24.322Z,8.40
2018-12-22T07:22:52.882Z,8.40
2018-12-22T07:25:21.470Z,8.50
2018-12-22T07:27:50.815Z,8.50
2018-12-22T07:30:26.109Z,8.50
2018-12-22T07:32:56.846Z,8.40
2018-12-22T07:35:20.880Z,8.40
2018-12-22T07:37:50.109Z,8.40
2018-12-22T07:40:19.223Z,8.60
2018-12-22T07:42:48.507Z,8.60
2018-12-22T07:45:17.625Z,8.60
2018-12-22T07:47:46.203Z,8.80
2018-12-22T07:50:14.698Z,8.70
2018-12-22T07:52:51.452Z,8.60
2018-12-22T07:55:13.693Z,8.60
2018-12-22T07:57:42.819Z,8.50
2018-12-22T08:00:11.946Z,8.50
2018-12-22T08:02:40.463Z,8.40
2018-12-22T08:05:09.115Z,8.40
2018-12-22T08:07:37.664Z,8.40
2018-12-22T08:10:07.265Z,8.50
2018-12-22T08:12:35.793Z,8.50
2018-12-22T08:15:04.539Z,8.40
2018-12-22T08:17:33.196Z,8.50
2018-12-22T08:20:02.640Z,8.60
2018-12-22T08:22:31.287Z,8.60
2018-12-22T08:24:59.933Z,8.50
2018-12-22T08:27:28.447Z,8.40
2018-12-22T08:29:57.038Z,8.40
2018-12-22T08:32:25.597Z,8.30
2018-12-22T08:34:54.466Z,8.30
2018-12-22T08:37:23.094Z,8.20
2018-12-22T08:39:52.470Z,8.10
2018-12-22T08:42:21.817Z,8.10
2018-12-22T08:44:51.171Z,8.10
2018-12-22T08:47:19.732Z,8.00
2018-12-22T08:49:48.267Z,8.00
2018-12-22T08:52:16.794Z,8.00
2018-12-22T08:54:45.944Z,8.00
2018-12-22T08:57:14.602Z,8.10
2018-12-22T08:59:43.143Z,8.00
2018-12-22T09:02:12.232Z,8.10
2018-12-22T09:04:40.834Z,8.10
2018-12-22T09:07:10.200Z,8.10
2018-12-22T09:09:38.696Z,8.10
2018-12-22T09:12:07.218Z,8.10
2018-12-22T09:14:35.904Z,8.10
2018-12-22T09:17:05.271Z,8.00
2018-12-22T09:19:34.266Z,8.00
2018-12-22T09:22:03.624Z,8.00
2018-12-22T09:24:32.159Z,7.90
2018-12-22T09:27:00.962Z,7.90
2018-12-22T09:29:30.240Z,8.00
2018-12-22T09:31:58.826Z,8.00
2018-12-22T09:34:27.452Z,8.00
2018-12-22T09:36:56.125Z,8.00
2018-12-22T09:39:25.161Z,8.10
2018-12-22T09:41:53.726Z,8.10
2018-12-22T09:44:22.299Z,8.10
2018-12-22T09:46:51.012Z,8.20
2018-12-22T09:49:19.558Z,8.30
2018-12-22T09:51:48.271Z,8.40
2018-12-22T09:54:16.883Z,8.40
2018-12-22T09:56:45.466Z,8.50
2018-12-22T09:59:14.803Z,8.60
2018-12-22T10:01:43.309Z,8.70
2018-12-22T10:04:11.930Z,8.80
2018-12-22T10:06:40.426Z,8.90
2018-12-22T10:09:09.080Z,8.90
2018-12-22T10:11:37.593Z,9.00
2018-12-22T10:14:06.147Z,9.00
2018-12-22T10:16:34.695Z,9.00
2018-12-22T10:19:03.626Z,9.10
2018-12-22T10:21:32.237Z,9.10
2018-12-22T10:24:00.759Z,9.10
2018-12-22T10:26:29.884Z,9.10
2018-12-22T10:28:58.471Z,9.10
2018-12-22T10:31:27.133Z,9.10
2018-12-22T10:33:55.682Z,9.10
2018-12-22T10:36:24.262Z,9.10
2018-12-22T10:38:52.907Z,9.10
2018-12-22T10:41:21.577Z,9.00
2018-12-22T10:43:50.084Z,9.00
2018-12-22T10:46:18.650Z,8.90
2018-12-22T10:48:47.198Z,8.90
2018-12-22T10:51:24.082Z,8.80
2018-12-22T10:53:46.609Z,8.70
2018-12-22T10:56:15.185Z,8.70
2018-12-22T10:58:43.874Z,8.70
2018-12-22T11:01:13.119Z,8.60
2018-12-22T11:03:42.317Z,8.60
2018-12-22T11:06:10.838Z,8.60
2018-12-22T11:08:39.441Z,8.60
2018-12-22T11:11:08.105Z,8.60
2018-12-22T11:13:36.759Z,8.60
2018-12-22T11:16:05.304Z,8.60
2018-12-22T11:18:33.992Z,8.70
2018-12-22T11:21:02.723Z,8.70
2018-12-22T11:23:31.199Z,8.80
2018-12-22T11:25:59.754Z,8.90
2018-12-22T11:28:28.235Z,9.00
2018-12-22T11:30:57.535Z,9.10
2018-12-22T11:33:26.094Z,9.20
2018-12-22T11:35:54.672Z,9.20
2018-12-22T11:38:23.237Z,9.10
2018-12-22T11:40:51.769Z,9.10
2018-12-22T11:43:20.337Z,9.10
2018-12-22T11:45:48.938Z,9.00
2018-12-22T11:48:29.399Z,8.80
2018-12-22T11:50:58.622Z,8.70
2018-12-22T11:53:27.190Z,8.50
2018-12-22T11:55:55.835Z,8.50
2018-12-22T11:58:24.633Z,8.30
2018-12-22T12:00:53.478Z,8.30
2018-12-22T12:03:22.053Z,8.20
2018-12-22T12:05:50.716Z,8.20
2018-12-22T12:08:20.069Z,8.30
2018-12-22T12:10:48.579Z,8.30
2018-12-22T12:13:17.159Z,8.40
2018-12-22T12:15:54.979Z,8.50
2018-12-22T12:18:48.261Z,8.60
2018-12-22T12:21:16.856Z,8.70
2018-12-22T12:23:46.402Z,8.80
2018-12-22T12:26:15.362Z,8.90
2018-12-22T12:28:44.007Z,9.00
2018-12-22T12:31:12.597Z,9.00
2018-12-22T12:33:41.164Z,9.00
2018-12-22T12:36:10.630Z,9.00
2018-12-22T12:38:40.029Z,9.00
2018-12-22T12:41:09.283Z,9.10
2018-12-22T12:43:38.447Z,9.10
2018-12-22T12:46:07.091Z,9.00
2018-12-22T12:48:35.658Z,9.00
2018-12-22T12:51:04.196Z,9.00
2018-12-22T12:53:33.445Z,9.00
2018-12-22T12:56:02.960Z,9.00
2018-12-22T12:58:31.463Z,9.10
2018-12-22T13:01:00.094Z,9.20
2018-12-22T13:03:28.734Z,9.30
2018-12-22T13:05:57.378Z,9.40
2018-12-22T13:08:25.954Z,9.30
2018-12-22T13:10:55.242Z,9.10
2018-12-22T13:13:45.718Z,9.00
2018-12-22T13:16:14.295Z,8.80
2018-12-22T13:18:43.130Z,8.70
2018-12-22T13:21:11.687Z,8.60
2018-12-22T13:23:40.157Z,8.50
2018-12-22T13:26:08.794Z,8.50
2018-12-22T13:28:37.343Z,8.50
2018-12-22T13:31:05.954Z,8.50
2018-12-22T13:33:34.857Z,8.60
2018-12-22T13:36:03.560Z,8.60
2018-12-22T13:38:36.054Z,8.60
2018-12-22T13:41:05.084Z,8.60
2018-12-22T13:43:33.674Z,8.60
2018-12-22T13:46:02.275Z,8.60
2018-12-22T13:48:31.277Z,8.50
2018-12-22T13:51:00.809Z,8.50
2018-12-22T13:53:30.209Z,8.40
2018-12-22T13:55:58.723Z,8.30
2018-12-22T13:58:27.845Z,8.20
2018-12-22T14:00:57.339Z,8.10
2018-12-22T14:03:32.368Z,8.00
2018-12-22T14:06:01.186Z,8.00
2018-12-22T14:08:29.870Z,7.90
2018-12-22T14:10:58.417Z,7.90
2018-12-22T14:13:27.051Z,7.90
2018-12-22T14:15:59.402Z,7.90
2018-12-22T14:18:43.615Z,7.90
2018-12-22T14:21:12.290Z,7.90
2018-12-22T14:24:17.214Z,7.90
2018-12-22T14:26:46.794Z,8.00
2018-12-22T14:29:15.361Z,8.00
2018-12-22T14:31:43.926Z,7.90
2018-12-22T14:34:20.477Z,7.90
2018-12-22T14:36:49.228Z,7.90
2018-12-22T14:39:17.792Z,7.90
2018-12-22T14:41:46.299Z,7.80
2018-12-22T14:44:15.106Z,7.80
2018-12-22T14:46:44.365Z,7.70
2018-12-22T14:49:12.899Z,7.80
2018-12-22T14:51:41.562Z,7.80
2018-12-22T14:54:10.131Z,7.70
2018-12-22T14:56:41.786Z,7.70
2018-12-22T14:59:12.421Z,7.70
2018-12-22T15:01:40.977Z,7.80
2018-12-22T15:04:09.958Z,7.80
2018-12-22T15:06:38.546Z,7.80
2018-12-22T15:09:13.277Z,7.80
2018-12-22T15:11:38.160Z,7.70
2018-12-22T15:14:06.744Z,7.70
2018-12-22T15:16:35.425Z,7.70
2018-12-22T15:19:04.030Z,7.60
2018-12-22T15:21:32.581Z,7.60
2018-12-22T15:24:01.761Z,7.60
2018-12-22T15:26:30.371Z,7.50
2018-12-22T15:28:58.910Z,7.60
2018-12-22T15:31:27.748Z,7.70
2018-12-22T15:33:56.678Z,7.70
2018-12-22T15:36:25.975Z,7.70
2018-12-22T15:38:54.537Z,7.60
2018-12-22T15:41:23.311Z,7.70
2018-12-22T15:43:51.837Z,7.70
2018-12-22T15:46:20.613Z,7.80
2018-12-22T15:48:49.255Z,7.90
2018-12-22T15:51:17.809Z,7.80
2018-12-22T15:53:46.461Z,7.70
2018-12-22T15:56:15.056Z,7.60
2018-12-22T15:58:43.674Z,7.60
2018-12-22T16:01:12.218Z,7.50
2018-12-22T16:03:40.787Z,7.40
2018-12-22T16:06:09.463Z,7.50
2018-12-22T16:08:38.011Z,7.60
2018-12-22T16:11:06.571Z,7.50
2018-12-22T16:13:35.679Z,7.60
2018-12-22T16:16:04.253Z,7.60
2018-12-22T16:18:32.961Z,7.60
2018-12-22T16:21:02.432Z,7.50
2018-12-22T16:23:30.927Z,7.50
2018-12-22T16:25:59.661Z,7.40
2018-12-22T16:28:31.609Z,7.50
2018-12-22T16:31:00.359Z,7.50
2018-12-22T16:33:28.863Z,7.60
2018-12-22T16:35:57.491Z,7.50
2018-12-22T16:38:26.034Z,7.50
2018-12-22T16:40:54.676Z,7.50
2018-12-22T16:43:23.255Z,7.60
2018-12-22T16:45:52.496Z,7.60
2018-12-22T16:48:23.540Z,7.60
2018-12-22T16:50:52.209Z,7.60
2018-12-22T16:53:20.907Z,7.70
2018-12-22T16:55:50.428Z,7.70
2018-12-22T16:58:28.387Z,7.60
2018-12-22T17:01:00.963Z,7.60
2018-12-22T17:03:30.261Z,7.50
2018-12-22T17:06:01.134Z,7.50
2018-12-22T17:08:29.662Z,7.50
2018-12-22T17:11:01.190Z,7.60
2018-12-22T17:13:29.712Z,7.60
2018-12-22T17:15:59.683Z,7.50
2018-12-22T17:18:29.896Z,7.40
2018-12-22T17:21:04.171Z,7.30
2018-12-22T17:23:44.850Z,7.20
2018-12-22T17:26:13.429Z,7.10
2018-12-22T17:28:42.362Z,7.00
2018-12-22T17:31:10.943Z,6.90
2018-12-22T17:33:39.548Z,6.90
2018-12-22T17:36:08.355Z,6.80
2018-12-22T17:38:36.898Z,6.70
2018-12-22T17:41:05.473Z,6.60
2018-12-22T17:43:35.083Z,6.50
2018-12-22T17:46:03.996Z,6.40
2018-12-22T17:48:32.715Z,6.40
2018-12-22T17:51:01.251Z,6.30
2018-12-22T17:53:30.026Z,6.20
2018-12-22T17:55:58.680Z,6.30
2018-12-22T17:58:27.147Z,6.20
2018-12-22T18:00:55.736Z,6.20
2018-12-22T18:03:28.647Z,6.20
2018-12-22T18:05:57.126Z,6.30
2018-12-22T18:08:25.780Z,6.30
2018-12-22T18:10:54.318Z,6.30
2018-12-22T18:13:23.598Z,6.50
2018-12-22T18:15:52.248Z,6.60
2018-12-22T18:18:20.959Z,6.50
2018-12-22T18:20:49.554Z,6.60
2018-12-22T18:23:18.253Z,6.60
2018-12-22T18:25:47.218Z,6.60
2018-12-22T18:28:16.419Z,6.60
2018-12-22T18:30:46.525Z,6.60
2018-12-22T18:33:15.069Z,6.50
2018-12-22T18:35:43.590Z,6.40
2018-12-22T18:38:12.319Z,6.40
2018-12-22T18:40:41.083Z,6.30
2018-12-22T18:43:09.678Z,6.30
2018-12-22T18:45:38.243Z,6.20
2018-12-22T18:48:06.822Z,6.20
2018-12-22T18:50:35.452Z,6.20
2018-12-22T18:53:04.005Z,6.30
2018-12-22T18:55:32.621Z,6.40
2018-12-22T18:58:02.873Z,6.70
2018-12-22T19:00:33.281Z,7.10
2018-12-22T19:03:02.567Z,7.30
2018-12-22T19:05:37.579Z,7.30
2018-12-22T19:08:11.631Z,7.30
2018-12-22T19:10:44.506Z,7.40
2018-12-22T19:13:13.099Z,7.20
2018-12-22T19:15:41.879Z,7.20
2018-12-22T19:18:11.065Z,7.20
2018-12-22T19:20:50.664Z,7.00
2018-12-22T19:23:20.499Z,6.90
2018-12-22T19:25:49.084Z,6.80
2018-12-22T19:28:17.807Z,6.80
2018-12-22T19:30:46.433Z,6.80
2018-12-22T19:33:15.242Z,6.80
2018-12-22T19:35:43.754Z,6.70
2018-12-22T19:38:12.481Z,6.70
2018-12-22T19:40:41.004Z,6.50
2018-12-22T19:43:09.594Z,6.40
2018-12-22T19:45:39.281Z,6.40
2018-12-22T19:48:08.300Z,6.30
2018-12-22T19:50:36.853Z,6.40
2018-12-22T19:53:05.418Z,6.30
2018-12-22T19:55:34.380Z,6.20
2018-12-22T19:58:03.008Z,6.20
2018-12-22T20:00:31.608Z,6.10
2018-12-22T20:03:00.198Z,6.00
2018-12-22T20:05:29.319Z,6.00
2018-12-22T20:07:57.967Z,5.90
2018-12-22T20:10:26.541Z,5.80
2018-12-22T20:12:56.234Z,5.70
2018-12-22T20:15:24.774Z,5.60
2018-12-22T20:17:53.481Z,5.50
2018-12-22T20:20:22.201Z,5.40
2018-12-22T20:22:50.794Z,5.40
2018-12-22T20:25:20.211Z,5.30
2018-12-22T20:27:48.818Z,5.30
2018-12-22T20:30:17.477Z,5.20
2018-12-22T20:32:46.855Z,5.20
2018-12-22T20:35:15.567Z,5.00
2018-12-22T20:37:44.276Z,4.70
2018-12-22T20:40:13.117Z,4.60
2018-12-22T20:42:41.814Z,4.60
2018-12-22T20:45:10.535Z,4.50
2018-12-22T20:47:39.192Z,4.40
2018-12-22T20:50:08.101Z,4.40
2018-12-22T20:52:36.694Z,4.50
2018-12-22T20:55:05.804Z,4.50
2018-12-22T20:57:34.620Z,4.40
2018-12-22T21:00:03.437Z,4.50
2018-12-22T21:02:32.029Z,4.70
2018-12-22T21:05:00.833Z,4.70
2018-12-22T21:07:29.483Z,4.80
2018-12-22T21:09:58.571Z,4.90
2018-12-22T21:12:27.553Z,5.10
2018-12-22T21:14:56.191Z,5.30
2018-12-22T21:17:24.886Z,5.40
2018-12-22T21:19:54.095Z,5.60
2018-12-22T21:22:22.726Z,5.70
2018-12-22T21:24:51.260Z,5.90
2018-12-22T21:27:20.857Z,6.10
2018-12-22T21:29:49.426Z,6.20
2018-12-22T21:32:18.039Z,6.30
2018-12-22T21:34:46.597Z,6.40
2018-12-22T21:37:15.178Z,6.60
2018-12-22T21:39:43.761Z,6.70
2018-12-22T21:42:12.855Z,6.80
2018-12-22T21:44:41.541Z,6.80
2018-12-22T21:47:10.800Z,6.80
2018-12-22T21:49:39.364Z,6.80
2018-12-22T21:52:07.982Z,7.00
2018-12-22T21:54:36.541Z,7.00
2018-12-22T21:57:05.346Z,6.90
2018-12-22T21:59:34.033Z,7.00
2018-12-22T22:02:03.527Z,7.00
2018-12-22T22:04:37.031Z,7.10
2018-12-22T22:07:02.747Z,7.00
2018-12-22T22:09:31.587Z,7.00
2018-12-22T22:12:00.248Z,7.00
2018-12-22T22:14:28.885Z,6.90
2018-12-22T22:16:57.517Z,6.90
2018-12-22T22:19:26.788Z,6.80
2018-12-22T22:21:55.330Z,6.70
2018-12-22T22:24:23.844Z,6.60
2018-12-22T22:26:52.469Z,6.70
2018-12-22T22:29:21.053Z,6.70
2018-12-22T22:31:49.750Z,6.70
2018-12-22T22:34:18.247Z,6.60
2018-12-22T22:36:47.800Z,6.60
2018-12-22T22:39:16.341Z,6.50
2018-12-22T22:41:44.915Z,6.50
2018-12-22T22:44:13.460Z,6.50
2018-12-22T22:46:42.024Z,6.40
2018-12-22T22:49:10.659Z,6.60
2018-12-22T22:51:39.362Z,6.70
2018-12-22T22:54:08.418Z,6.60
2018-12-22T22:56:37.047Z,6.60
2018-12-22T22:59:05.642Z,6.50
2018-12-22T23:01:34.671Z,6.50
2018-12-22T23:04:03.992Z,6.40
2018-12-22T23:06:32.589Z,6.30
2018-12-22T23:09:01.103Z,6.30
2018-12-22T23:11:29.625Z,6.30
2018-12-22T23:13:58.296Z,6.40
2018-12-22T23:16:26.928Z,6.60
2018-12-22T23:18:55.519Z,6.60
2018-12-22T23:21:24.071Z,6.60
2018-12-22T23:23:52.540Z,6.60
2018-12-22T23:26:21.149Z,6.60
2018-12-22T23:28:49.689Z,6.50
2018-12-22T23:31:18.330Z,6.50
2018-12-22T23:33:46.834Z,6.40
2018-12-22T23:36:15.369Z,6.40
2018-12-22T23:38:43.949Z,6.50
2018-12-22T23:41:13.522Z,6.40
2018-12-22T23:43:42.096Z,6.60
2018-12-22T23:46:10.664Z,6.50
2018-12-22T23:48:39.171Z,6.50
2018-12-22T23:51:07.726Z,6.40
2018-12-22T23:53:36.244Z,6.40
2018-12-22T23:56:04.990Z,6.30
2018-12-22T23:58:33.482Z,6.40
